createdAt,value
2023-03-12T00:00:04.391Z,101048.00
2023-03-12T00:02:32.048Z,101044.56
2023-03-12T00:04:59.551Z,101033.31
2023-03-12T00:07:27.125Z,101041.91
2023-03-12T00:09:56.170Z,101028.97
2023-03-12T00:12:23.664Z,101024.59
2023-03-12T00:14:51.194Z,101037.66
2023-03-12T00:17:18.735Z,101023.81
2023-03-12T00:19:46.260Z,101020.31
2023-03-12T00:22:14.172Z,101019.53
2023-03-12T00:24:41.698Z,101019.53
2023-03-12T00:27:10.543Z,101022.13
2023-03-12T00:29:38.004Z,101023.84
2023-03-12T00:32:05.767Z,101010.91
2023-03-12T00:34:33.526Z,101012.72
2023-03-12T00:37:01.020Z,101011.03
2023-03-12T00:39:28.497Z,101026.63
2023-03-12T00:41:56.013Z,101018.03
2023-03-12T00:44:24.863Z,101007.63
2023-03-12T00:46:52.384Z,101010.25
2023-03-12T00:49:19.890Z,101005.06
2023-03-12T00:51:47.329Z,101004.22
2023-03-12T00:54:14.795Z,100999.03
2023-03-12T00:56:42.238Z,100997.31
2023-03-12T00:59:09.709Z,100987.84
2023-03-12T01:01:38.664Z,100990.44
2023-03-12T01:04:06.255Z,100992.13
2023-03-12T01:06:33.790Z,100978.34
2023-03-12T01:09:02.119Z,100987.00
2023-03-12T01:11:30.892Z,100982.69
2023-03-12T01:13:58.426Z,100978.34
2023-03-12T01:16:28.262Z,100975.75
2023-03-12T01:18:57.274Z,100973.16
2023-03-12T01:21:24.873Z,100963.63
2023-03-12T01:23:52.447Z,100968.81
2023-03-12T01:26:19.888Z,100964.47
2023-03-12T01:28:47.402Z,100964.47
2023-03-12T01:31:15.703Z,100965.31
2023-03-12T01:33:43.348Z,100971.34
2023-03-12T01:36:17.549Z,100967.84
2023-03-12T01:38:45.061Z,100973.03
2023-03-12T01:41:12.541Z,100971.28
2023-03-12T01:43:40.390Z,100966.09
2023-03-12T01:46:11.343Z,100964.34
2023-03-12T01:48:40.059Z,100962.66
2023-03-12T01:51:07.824Z,100964.34
2023-03-12T01:53:36.815Z,100953.06
2023-03-12T01:56:04.417Z,100956.53
2023-03-12T01:58:32.072Z,100955.59
2023-03-12T02:00:59.635Z,100959.06
2023-03-12T02:03:27.179Z,100954.72
2023-03-12T02:05:55.104Z,100942.63
2023-03-12T02:08:22.634Z,100938.28
2023-03-12T02:10:51.596Z,100939.97
2023-03-12T02:13:19.099Z,100933.84
2023-03-12T02:15:46.680Z,100932.94
2023-03-12T02:18:15.046Z,100929.50
2023-03-12T02:20:43.199Z,100927.75
2023-03-12T02:23:11.796Z,100932.03
2023-03-12T02:25:40.937Z,100927.75
2023-03-12T02:28:08.992Z,100924.25
2023-03-12T02:30:36.510Z,100920.81
2023-03-12T02:33:07.112Z,100924.25
2023-03-12T02:35:34.706Z,100919.06
2023-03-12T02:38:02.293Z,100914.69
2023-03-12T02:40:30.763Z,100919.06
2023-03-12T02:42:59.681Z,100913.84
2023-03-12T02:45:27.280Z,100907.81
2023-03-12T02:47:54.888Z,100904.31
2023-03-12T02:50:22.533Z,100893.06
2023-03-12T02:52:50.036Z,100896.50
2023-03-12T02:55:17.502Z,100891.31
2023-03-12T02:57:45.066Z,100884.41
2023-03-12T03:00:14.635Z,100876.59
2023-03-12T03:02:42.717Z,100879.22
2023-03-12T03:05:11.148Z,100882.66
2023-03-12T03:07:38.738Z,100876.63
2023-03-12T03:10:06.995Z,100880.06
2023-03-12T03:12:34.751Z,100872.28
2023-03-12T03:15:02.256Z,100862.78
2023-03-12T03:17:31.220Z,100863.59
2023-03-12T03:19:58.736Z,100862.72
2023-03-12T03:22:26.319Z,100860.09
2023-03-12T03:24:54.000Z,100852.31
2023-03-12T03:27:21.474Z,100844.50
2023-03-12T03:32:15.333Z,100842.69
2023-03-12T03:34:44.299Z,100840.94
2023-03-12T03:37:11.830Z,100837.50
2023-03-12T03:39:39.331Z,100834.00
2023-03-12T03:42:06.944Z,100834.00
2023-03-12T03:44:34.461Z,100833.03
2023-03-12T03:47:02.362Z,100823.47
2023-03-12T03:49:29.807Z,100825.22
2023-03-12T03:51:58.945Z,100832.13
2023-03-12T03:54:26.541Z,100828.66
2023-03-12T03:56:54.046Z,100837.28
2023-03-12T03:59:21.519Z,100828.63
2023-03-12T04:01:49.065Z,100830.38
2023-03-12T04:04:16.519Z,100830.38
2023-03-12T04:06:44.051Z,100822.59
2023-03-12T04:09:12.919Z,100823.44
2023-03-12T04:11:40.429Z,100820.84
2023-03-12T04:14:07.986Z,100829.47
2023-03-12T04:16:35.486Z,100825.19
2023-03-12T04:19:02.998Z,100816.50
2023-03-12T04:21:30.521Z,100802.66
2023-03-12T04:23:57.985Z,100794.88
2023-03-12T04:26:26.806Z,100792.28
2023-03-12T04:28:54.329Z,100789.69
2023-03-12T04:31:22.023Z,100790.56
2023-03-12T04:33:49.496Z,100784.44
2023-03-12T04:36:16.951Z,100776.66
2023-03-12T04:38:44.411Z,100774.91
2023-03-12T04:41:13.027Z,100764.50
2023-03-12T04:43:41.937Z,100764.50
2023-03-12T04:46:09.685Z,100760.16
2023-03-12T04:48:37.357Z,100753.28
2023-03-12T04:51:05.453Z,100754.13
2023-03-12T04:53:33.017Z,100749.75
2023-03-12T04:56:00.517Z,100741.91
2023-03-12T04:58:28.229Z,100737.53
2023-03-12T05:00:57.043Z,100728.00
2023-03-12T05:03:24.683Z,100728.84
2023-03-12T05:05:52.207Z,100720.19
2023-03-12T05:08:19.720Z,100719.34
2023-03-12T05:10:47.258Z,100707.19
2023-03-12T05:13:15.175Z,100717.59
2023-03-12T05:15:42.696Z,100715.78
2023-03-12T05:18:11.639Z,100708.88
2023-03-12T05:20:39.184Z,100713.19
2023-03-12T05:23:06.691Z,100708.88
2023-03-12T05:25:34.245Z,100710.56
2023-03-12T05:28:01.758Z,100724.38
2023-03-12T05:30:29.237Z,100730.41
2023-03-12T05:32:56.752Z,100719.19
2023-03-12T05:35:25.706Z,100714.75
2023-03-12T05:37:53.138Z,100713.00
2023-03-12T05:40:20.718Z,100717.28
2023-03-12T05:42:48.373Z,100718.91
2023-03-12T05:45:15.908Z,100706.81
2023-03-12T05:47:43.505Z,100685.13
2023-03-12T05:50:11.826Z,100684.25
2023-03-12T05:52:40.710Z,100690.28
2023-03-12T05:55:08.883Z,100679.88
2023-03-12T05:57:36.458Z,100682.41
2023-03-12T06:00:04.501Z,100683.34
2023-03-12T06:02:32.086Z,100687.63
2023-03-12T06:04:59.747Z,100690.16
2023-03-12T06:07:27.194Z,100696.19
2023-03-12T06:09:56.080Z,100698.72
2023-03-12T06:12:23.541Z,100686.56
2023-03-12T06:14:50.991Z,100683.06
2023-03-12T06:17:18.506Z,100682.19
2023-03-12T06:19:46.000Z,100695.94
2023-03-12T06:22:13.458Z,100698.56
2023-03-12T06:24:42.648Z,100698.47
2023-03-12T06:27:11.490Z,100693.28
2023-03-12T06:29:38.962Z,100678.53
2023-03-12T06:32:06.624Z,100671.56
2023-03-12T06:34:34.228Z,100657.72
2023-03-12T06:37:01.896Z,100668.97
2023-03-12T06:39:29.976Z,100674.94
2023-03-12T06:41:57.546Z,100670.63
2023-03-12T06:44:26.444Z,100664.50
2023-03-12T06:46:53.902Z,100672.25
2023-03-12T06:49:21.411Z,100674.78
2023-03-12T06:51:48.931Z,100680.81
2023-03-12T06:54:16.596Z,100676.47
2023-03-12T06:56:44.064Z,100672.94
2023-03-12T06:59:11.602Z,100665.94
2023-03-12T07:01:40.603Z,100658.91
2023-03-12T07:04:08.078Z,100658.00
2023-03-12T07:06:35.556Z,100649.28
2023-03-12T07:09:03.060Z,100655.25
2023-03-12T07:11:30.587Z,100655.25
2023-03-12T07:13:58.457Z,100652.63
2023-03-12T07:16:25.929Z,100648.25
2023-03-12T07:18:54.829Z,100645.59
2023-03-12T07:21:23.761Z,100635.19
2023-03-12T07:23:51.691Z,100637.72
2023-03-12T07:26:19.372Z,100632.44
2023-03-12T07:28:46.907Z,100629.78
2023-03-12T07:31:14.453Z,100624.53
2023-03-12T07:33:42.076Z,100624.47
2023-03-12T07:36:11.175Z,100622.63
2023-03-12T07:38:38.799Z,100624.38
2023-03-12T07:41:06.386Z,100624.31
2023-03-12T07:43:33.943Z,100614.75
2023-03-12T07:46:01.419Z,100611.25
2023-03-12T07:48:28.906Z,100609.50
2023-03-12T07:50:56.443Z,100607.69
2023-03-12T07:53:25.347Z,100609.38
2023-03-12T07:55:53.107Z,100599.81
2023-03-12T07:58:20.785Z,100604.84
2023-03-12T08:00:49.031Z,100587.50
2023-03-12T08:03:18.504Z,100591.81
2023-03-12T08:05:46.629Z,100582.25
2023-03-12T08:08:14.231Z,100582.25
2023-03-12T08:10:43.235Z,100577.03
2023-03-12T08:13:10.725Z,100588.28
2023-03-12T08:15:38.297Z,100586.38
2023-03-12T08:18:05.868Z,100589.00
2023-03-12T08:20:33.348Z,100587.22
2023-03-12T08:23:00.896Z,100584.63
2023-03-12T08:25:28.630Z,100589.84
2023-03-12T08:27:57.490Z,100582.88
2023-03-12T08:30:25.028Z,100591.50
2023-03-12T08:32:52.625Z,100585.44
2023-03-12T08:35:20.141Z,100590.63
2023-03-12T08:37:47.712Z,100601.81
2023-03-12T08:40:15.320Z,100596.59
2023-03-12T08:42:42.984Z,100594.78
2023-03-12T08:45:12.672Z,100586.03
2023-03-12T08:47:41.678Z,100579.00
2023-03-12T08:50:09.850Z,100583.31
2023-03-12T08:52:37.383Z,100593.66
2023-03-12T08:55:05.969Z,100597.88
2023-03-12T08:57:33.513Z,100592.59
2023-03-12T09:00:00.964Z,100590.84
2023-03-12T09:02:29.901Z,100582.97
2023-03-12T09:04:57.421Z,100575.09
2023-03-12T09:07:24.911Z,100579.38
2023-03-12T09:09:52.500Z,100575.88
2023-03-12T09:12:19.991Z,100562.84
2023-03-12T09:15:03.122Z,100574.94
2023-03-12T09:17:32.848Z,100570.66
2023-03-12T09:20:00.769Z,100565.47
2023-03-12T09:22:29.858Z,100569.75
2023-03-12T09:24:57.354Z,100577.47
2023-03-12T09:27:24.851Z,100563.56
2023-03-12T09:30:00.121Z,100554.00
2023-03-12T09:32:28.404Z,100564.41
2023-03-12T09:34:57.330Z,100559.97
2023-03-12T09:37:24.841Z,100552.16
2023-03-12T09:39:52.617Z,100556.38
2023-03-12T09:42:22.966Z,100555.41
2023-03-12T09:44:50.441Z,100541.41
2023-03-12T09:47:20.455Z,100554.25
2023-03-12T09:49:48.763Z,100555.94
2023-03-12T09:52:19.684Z,100556.75
2023-03-12T09:54:49.561Z,100550.63
2023-03-12T09:57:18.306Z,100565.25
2023-03-12T09:59:45.747Z,100553.91
2023-03-12T10:02:19.591Z,100555.53
2023-03-12T10:04:58.847Z,100558.06
2023-03-12T10:07:29.784Z,100554.41
2023-03-12T10:10:05.005Z,100557.78
2023-03-12T10:12:35.710Z,100553.28
2023-03-12T10:15:07.244Z,100557.47
2023-03-12T10:17:38.901Z,100560.81
2023-03-12T10:20:14.406Z,100562.41
2023-03-12T10:22:47.806Z,100554.47
2023-03-12T10:25:17.289Z,100542.13
2023-03-12T10:27:44.849Z,100550.63
2023-03-12T10:30:15.428Z,100554.78
2023-03-12T10:32:43.472Z,100542.38
2023-03-12T10:35:14.758Z,100535.25
2023-03-12T10:37:43.522Z,100536.72
2023-03-12T10:40:16.436Z,100539.94
2023-03-12T10:42:44.145Z,100543.16
2023-03-12T10:45:20.306Z,100543.69
2023-03-12T10:47:49.646Z,100540.88
2023-03-12T10:50:18.230Z,100535.50
2023-03-12T10:52:46.091Z,100526.63
2023-03-12T10:55:21.608Z,100538.56
2023-03-12T10:57:49.300Z,100532.28
2023-03-12T11:00:19.692Z,100528.59
2023-03-12T11:02:47.841Z,100525.75
2023-03-12T11:05:22.689Z,100520.38
2023-03-12T11:07:50.260Z,100523.69
2023-03-12T11:10:20.449Z,100523.34
2023-03-12T11:12:58.331Z,100516.97
2023-03-12T11:15:26.708Z,100514.13
2023-03-12T11:17:54.242Z,100515.66
2023-03-12T11:20:28.282Z,100515.50
2023-03-12T11:22:55.802Z,100520.56
2023-03-12T11:25:25.864Z,100515.94
2023-03-12T11:27:54.315Z,100520.06
2023-03-12T11:30:23.537Z,100521.59
2023-03-12T11:32:51.298Z,100524.03
2023-03-12T11:35:19.954Z,100523.81
2023-03-12T11:37:51.242Z,100517.66
2023-03-12T11:40:20.268Z,100524.47
2023-03-12T11:42:53.267Z,100519.09
2023-03-12T11:45:23.071Z,100514.47
2023-03-12T11:47:54.513Z,100517.84
2023-03-12T11:50:25.741Z,100515.81
2023-03-12T11:52:59.948Z,100507.84
2023-03-12T11:55:48.328Z,100498.91
2023-03-12T11:58:21.385Z,100499.50
2023-03-12T12:00:50.248Z,100498.22
2023-03-12T12:03:41.806Z,100497.91
2023-03-12T12:06:10.056Z,100501.91
2023-03-12T12:08:43.594Z,100496.44
2023-03-12T12:11:11.869Z,100497.03
2023-03-12T12:13:43.318Z,100498.38
2023-03-12T12:16:16.226Z,100492.78
2023-03-12T12:18:47.101Z,100492.44
2023-03-12T12:21:18.869Z,100485.09
2023-03-12T12:23:48.774Z,100480.28
2023-03-12T12:26:17.325Z,100472.00
2023-03-12T12:28:49.254Z,100457.63
2023-03-12T12:31:20.363Z,100464.81
2023-03-12T12:33:51.748Z,100459.81
2023-03-12T12:36:19.229Z,100461.03
2023-03-12T12:38:47.932Z,100453.56
2023-03-12T12:41:16.607Z,100447.13
2023-03-12T12:43:44.787Z,100451.91
2023-03-12T12:46:16.074Z,100452.53
2023-03-12T12:48:44.498Z,100444.97
2023-03-12T12:51:12.140Z,100450.03
2023-03-12T12:53:41.848Z,100443.56
2023-03-12T12:56:13.581Z,100445.88
2023-03-12T12:58:59.950Z,100438.63
2023-03-12T13:01:28.986Z,100446.84
2023-03-12T13:03:57.856Z,100436.81
2023-03-12T13:06:28.610Z,100425.75
2023-03-12T13:09:00.154Z,100414.81
2023-03-12T13:11:29.027Z,100423.84
2023-03-12T13:14:29.477Z,100419.78
2023-03-12T13:17:08.641Z,100417.50
2023-03-12T13:19:40.634Z,100417.94
2023-03-12T13:22:10.470Z,100410.63
2023-03-12T13:24:40.713Z,100412.94
2023-03-12T13:27:10.466Z,100422.19
2023-03-12T13:29:39.703Z,100420.94
2023-03-12T13:32:09.194Z,100425.25
2023-03-12T13:34:46.630Z,100431.88
2023-03-12T13:37:44.083Z,100434.38
2023-03-12T13:40:26.422Z,100440.25
2023-03-12T13:43:02.310Z,100433.03
2023-03-12T13:45:31.675Z,100431.97
2023-03-12T13:48:02.220Z,100423.09
2023-03-12T13:50:29.958Z,100426.44
2023-03-12T13:53:02.084Z,100429.91
2023-03-12T13:55:30.219Z,100423.59
2023-03-12T13:57:58.201Z,100430.63
2023-03-12T14:00:26.765Z,100420.13
2023-03-12T14:02:54.892Z,100432.31
2023-03-12T14:05:23.748Z,100435.69
2023-03-12T14:08:07.008Z,100430.44
2023-03-12T14:10:36.482Z,100431.06
2023-03-12T14:13:07.725Z,100439.47
2023-03-12T14:15:36.087Z,100448.28
2023-03-12T14:18:05.358Z,100453.53
2023-03-12T14:20:34.306Z,100456.03
2023-03-12T14:23:04.030Z,100455.22
2023-03-12T14:25:35.256Z,100452.59
2023-03-12T14:28:03.199Z,100462.25
2023-03-12T14:30:33.166Z,100455.09
2023-03-12T14:33:01.546Z,100455.84
2023-03-12T14:35:30.342Z,100456.56
2023-03-12T14:38:00.186Z,100464.34
2023-03-12T14:40:31.570Z,100454.38
2023-03-12T14:43:00.522Z,100468.25
2023-03-12T14:45:28.175Z,100464.44
2023-03-12T14:47:56.508Z,100465.19
2023-03-12T14:50:24.895Z,100474.72
2023-03-12T14:52:52.533Z,100470.25
2023-03-12T14:55:22.550Z,100469.91
2023-03-12T14:57:50.374Z,100472.44
2023-03-12T15:00:24.879Z,100477.47
2023-03-12T15:02:52.769Z,100475.38
2023-03-12T15:05:20.392Z,100472.53
2023-03-12T15:07:47.931Z,100473.25
2023-03-12T15:10:19.188Z,100469.69
2023-03-12T15:12:48.199Z,100465.94
2023-03-12T15:15:22.174Z,100473.56
2023-03-12T15:17:49.612Z,100459.19
2023-03-12T15:20:17.223Z,100459.63
2023-03-12T15:22:44.762Z,100460.13
2023-03-12T15:25:25.118Z,100460.63
2023-03-12T15:28:03.168Z,100466.53
2023-03-12T15:30:30.848Z,100458.53
2023-03-12T15:33:05.457Z,100459.25
2023-03-12T15:35:33.246Z,100453.28
2023-03-12T15:38:00.858Z,100454.97
2023-03-12T15:40:29.144Z,100456.63
2023-03-12T15:42:59.185Z,100453.06
2023-03-12T15:45:29.900Z,100452.09
2023-03-12T15:47:57.483Z,100450.44
2023-03-12T15:50:26.840Z,100459.06
2023-03-12T15:53:01.780Z,100449.47
2023-03-12T15:55:29.907Z,100441.50
2023-03-12T15:57:58.214Z,100442.34
2023-03-12T16:00:26.865Z,100433.53
2023-03-12T16:02:56.845Z,100439.50
2023-03-12T16:05:24.848Z,100442.13
2023-03-12T16:07:52.361Z,100443.78
2023-03-12T16:10:20.428Z,100443.59
2023-03-12T16:12:48.113Z,100439.19
2023-03-12T16:15:16.361Z,100449.47
2023-03-12T16:17:44.090Z,100449.34
2023-03-12T16:20:14.821Z,100451.00
2023-03-12T16:22:42.489Z,100450.09
2023-03-12T16:25:12.065Z,100465.75
2023-03-12T16:27:40.223Z,100456.91
2023-03-12T16:30:11.226Z,100452.59
2023-03-12T16:32:38.751Z,100457.03
2023-03-12T16:35:10.024Z,100453.44
2023-03-12T16:37:38.938Z,100451.78
2023-03-12T16:40:06.920Z,100451.84
2023-03-12T16:42:35.048Z,100462.47
2023-03-12T16:45:02.640Z,100457.34
2023-03-12T16:47:30.128Z,100447.78
2023-03-12T16:49:57.848Z,100454.94
2023-03-12T16:52:26.576Z,100448.84
2023-03-12T16:54:55.754Z,100446.31
2023-03-12T16:57:25.844Z,100448.22
2023-03-12T16:59:53.423Z,100439.63
2023-03-12T17:02:21.499Z,100438.78
2023-03-12T17:04:50.907Z,100433.63
2023-03-12T17:07:18.462Z,100439.81
2023-03-12T17:09:45.988Z,100440.75
2023-03-12T17:12:18.355Z,100435.63
2023-03-12T17:14:45.882Z,100453.28
2023-03-12T17:17:13.337Z,100469.03
2023-03-12T17:19:40.840Z,100458.53
2023-03-12T17:22:08.273Z,100461.28
2023-03-12T17:24:35.795Z,100471.88
2023-03-12T17:27:03.376Z,100466.72
2023-03-12T17:29:32.204Z,100468.50
2023-03-12T17:31:59.711Z,100464.09
2023-03-12T17:34:27.172Z,100473.88
2023-03-12T17:36:54.644Z,100476.63
2023-03-12T17:39:23.109Z,100468.03
2023-03-12T17:41:50.642Z,100470.66
2023-03-12T17:44:18.226Z,100472.50
2023-03-12T17:46:58.492Z,100478.84
2023-03-12T17:49:26.940Z,100485.97
2023-03-12T17:51:54.436Z,100486.94
2023-03-12T17:54:22.254Z,100493.97
2023-03-12T17:56:49.753Z,100495.72
2023-03-12T17:59:18.122Z,100499.41
2023-03-12T18:01:46.945Z,100495.84
2023-03-12T18:04:15.677Z,100501.22
2023-03-12T18:06:43.305Z,100491.53
2023-03-12T18:09:10.815Z,100499.22
2023-03-12T18:11:38.283Z,100502.56
2023-03-12T18:14:05.813Z,100496.38
2023-03-12T18:16:33.436Z,100497.22
2023-03-12T18:19:02.292Z,100510.34
2023-03-12T18:21:29.755Z,100506.88
2023-03-12T18:23:59.452Z,100513.06
2023-03-12T18:26:29.570Z,100512.13
2023-03-12T18:28:58.228Z,100516.53
2023-03-12T18:31:25.776Z,100506.03
2023-03-12T18:33:53.371Z,100499.94
2023-03-12T18:36:22.255Z,100491.13
2023-03-12T18:38:49.771Z,100495.53
2023-03-12T18:41:17.263Z,100482.28
2023-03-12T18:43:44.849Z,100470.13
2023-03-12T18:46:13.037Z,100471.06
2023-03-12T18:48:42.922Z,100485.88
2023-03-12T18:51:11.423Z,100473.69
2023-03-12T18:53:40.324Z,100468.44
2023-03-12T18:56:08.070Z,100472.09
2023-03-12T18:58:35.529Z,100466.00
2023-03-12T19:01:03.112Z,100464.13
2023-03-12T19:03:33.844Z,100465.94
2023-03-12T19:06:02.028Z,100467.50
2023-03-12T19:08:30.029Z,100464.88
2023-03-12T19:10:58.862Z,100473.47
2023-03-12T19:13:26.484Z,100475.97
2023-03-12T19:15:58.318Z,100474.94
2023-03-12T19:18:25.889Z,100478.28
2023-03-12T19:20:54.111Z,100468.63
2023-03-12T19:23:21.644Z,100473.88
2023-03-12T19:25:49.184Z,100471.13
2023-03-12T19:28:18.050Z,100479.97
2023-03-12T19:30:45.532Z,100478.19
2023-03-12T19:33:13.125Z,100475.56
2023-03-12T19:35:41.025Z,100470.31
2023-03-12T19:38:08.722Z,100471.13
2023-03-12T19:40:36.216Z,100467.78
2023-03-12T19:43:03.915Z,100472.22
2023-03-12T19:45:32.817Z,100471.38
2023-03-12T19:48:00.291Z,100468.75
2023-03-12T19:50:27.842Z,100469.81
2023-03-12T19:52:55.310Z,100467.19
2023-03-12T19:55:22.822Z,100467.25
2023-03-12T19:57:50.308Z,100468.22
2023-03-12T20:00:17.966Z,100466.53
2023-03-12T20:02:46.974Z,100455.19
2023-03-12T20:05:14.572Z,100455.31
2023-03-12T20:07:42.014Z,100457.94
2023-03-12T20:10:10.969Z,100457.94
2023-03-12T20:12:38.680Z,100452.69
2023-03-12T20:15:06.782Z,100454.59
2023-03-12T20:17:34.260Z,100458.97
2023-03-12T20:20:05.850Z,100451.97
2023-03-12T20:22:36.148Z,100449.34
2023-03-12T20:25:03.823Z,100449.34
2023-03-12T20:27:31.420Z,100449.34
2023-03-12T20:29:58.936Z,100439.75
2023-03-12T20:32:26.499Z,100423.06
2023-03-12T20:34:53.959Z,100419.69
2023-03-12T20:37:22.798Z,100410.16
2023-03-12T20:39:50.280Z,100415.28
2023-03-12T20:42:17.763Z,100418.84
2023-03-12T20:44:45.225Z,100413.63
2023-03-12T20:47:12.772Z,100412.56
2023-03-12T20:49:40.345Z,100406.16
2023-03-12T20:52:07.834Z,100406.03
2023-03-12T20:54:36.729Z,100399.81
2023-03-12T20:57:04.187Z,100405.00
2023-03-12T20:59:31.705Z,100398.91
2023-03-12T21:01:59.194Z,100393.53
2023-03-12T21:04:26.694Z,100403.22
2023-03-12T21:06:55.854Z,100389.25
2023-03-12T21:09:23.544Z,100389.25
2023-03-12T21:11:52.441Z,100384.81
2023-03-12T21:14:19.961Z,100385.66
2023-03-12T21:16:47.567Z,100381.25
2023-03-12T21:19:15.060Z,100366.31
2023-03-12T21:21:42.532Z,100361.06
2023-03-12T21:24:10.038Z,100361.06
2023-03-12T21:26:37.552Z,100361.06
2023-03-12T21:29:06.415Z,100361.06
2023-03-12T21:31:33.912Z,100345.31
2023-03-12T21:34:01.500Z,100359.16
2023-03-12T21:36:29.097Z,100346.03
2023-03-12T21:38:56.583Z,100352.97
2023-03-12T21:41:24.036Z,100345.91
2023-03-12T21:43:51.595Z,100345.72
2023-03-12T21:46:24.473Z,100340.47
2023-03-12T21:48:52.238Z,100338.56
2023-03-12T21:51:20.204Z,100340.22
2023-03-12T21:53:47.699Z,100327.94
2023-03-12T21:56:15.222Z,100322.56
2023-03-12T21:58:42.735Z,100326.88
2023-03-12T22:01:10.869Z,100319.72
2023-03-12T22:03:40.029Z,100312.69
2023-03-12T22:06:07.729Z,100313.41
2023-03-12T22:08:35.376Z,100305.53
2023-03-12T22:11:03.109Z,100308.16
2023-03-12T22:13:30.673Z,100296.69
2023-03-12T22:15:58.736Z,100293.88
2023-03-12T22:18:26.290Z,100296.38
2023-03-12T22:20:55.474Z,100288.50
2023-03-12T22:23:23.219Z,100285.75
2023-03-12T22:25:51.072Z,100278.81
2023-03-12T22:28:18.720Z,100261.38
2023-03-12T22:30:46.238Z,100263.06
2023-03-12T22:33:13.924Z,100252.75
2023-03-12T22:35:44.307Z,100250.13
2023-03-12T22:38:13.196Z,100237.22
2023-03-12T22:40:41.111Z,100238.06
2023-03-12T22:43:08.608Z,100233.66
2023-03-12T22:45:36.207Z,100216.22
2023-03-12T22:48:03.954Z,100218.84
2023-03-12T22:50:31.474Z,100212.75
2023-03-12T22:52:59.376Z,100205.84
2023-03-12T22:55:28.245Z,100200.47
2023-03-12T22:57:55.730Z,100197.13
2023-03-12T23:00:23.964Z,100196.28
2023-03-12T23:02:51.654Z,100200.47
2023-03-12T23:05:19.164Z,100189.00
2023-03-12T23:07:46.698Z,100188.03
2023-03-12T23:10:14.177Z,100187.94
2023-03-12T23:12:43.030Z,100180.91
2023-03-12T23:15:11.156Z,100172.06
2023-03-12T23:17:38.698Z,100158.94
2023-03-12T23:20:07.616Z,100161.44
2023-03-12T23:22:35.681Z,100162.28
2023-03-12T23:25:03.188Z,100150.81
2023-03-12T23:27:30.722Z,100149.72
2023-03-12T23:29:59.525Z,100147.59
2023-03-12T23:32:27.138Z,100141.25
2023-03-12T23:34:54.686Z,100139.38
2023-03-12T23:37:22.205Z,100139.38
2023-03-12T23:39:54.781Z,100130.53
2023-03-12T23:42:22.565Z,100126.81
2023-03-12T23:44:50.176Z,100125.03
2023-03-12T23:47:19.032Z,100116.19
2023-03-12T23:49:46.455Z,100108.22
2023-03-12T23:52:13.987Z,100112.50
2023-03-12T23:54:41.587Z,100104.50
2023-03-12T23:57:09.109Z,100102.72
2023-03-12T23:59:36.647Z,100100.91
